Time;durP1;ratioP1;P1;durP2;ratioP2;P2;SDS_P1;SDS_P2;PMS_P1;PMS_P2;Temp;Humidity;BMP_temperature;BMP_pressure;BME280_temperature;BME280_humidity;BME280_pressure;Samples;Min_cycle;Max_cycle;Signal;HPM_P1;HPM_P2
2022/06/10 00:01:10;;;;;;;0.90;0.60;;;12.20;99.90;;;;;;5056046;28;20089;-74
2022/06/10 00:03:36;;;;;;;0.95;0.65;;;12.20;99.90;;;;;;5073796;28;20072;-74
2022/06/10 00:06:05;;;;;;;1.23;0.90;;;12.20;99.90;;;;;;5072287;28;20128;-74
2022/06/10 00:08:34;;;;;;;1.23;0.80;;;12.20;99.90;;;;;;5055783;28;20392;-74
2022/06/10 00:11:01;;;;;;;1.50;0.85;;;12.20;99.90;;;;;;5072039;28;20107;-74
2022/06/10 00:13:29;;;;;;;1.73;0.70;;;12.10;99.90;;;;;;5073829;28;20032;-74
2022/06/10 00:15:56;;;;;;;1.15;0.70;;;12.10;99.90;;;;;;5071913;28;20044;-74
2022/06/10 00:18:24;;;;;;;2.10;0.98;;;12.10;99.90;;;;;;5055685;28;20048;-74
2022/06/10 00:20:50;;;;;;;2.00;1.10;;;12.10;99.90;;;;;;5072127;28;20078;-73
2022/06/10 00:23:15;;;;;;;1.30;0.57;;;12.10;99.90;;;;;;5071411;28;20051;-74
2022/06/10 00:25:42;;;;;;;0.85;0.70;;;12.00;99.90;;;;;;5072039;28;20036;-73
2022/06/10 00:28:08;;;;;;;1.42;0.65;;;12.10;99.90;;;;;;5071941;28;20435;-73
2022/06/10 00:30:34;;;;;;;2.00;0.52;;;12.10;99.90;;;;;;5073416;28;20068;-74
2022/06/10 00:33:00;;;;;;;0.85;0.75;;;12.30;99.90;;;;;;5055204;28;20068;-74
2022/06/10 00:35:27;;;;;;;6.75;0.98;;;12.10;99.90;;;;;;5072519;28;20041;-74
2022/06/10 00:37:53;;;;;;;1.67;0.90;;;12.00;99.90;;;;;;5071647;28;20040;-74
2022/06/10 00:40:24;;;;;;;1.42;0.68;;;12.10;99.90;;;;;;5071516;28;20052;-74
2022/06/10 00:42:50;;;;;;;3.08;1.10;;;12.00;99.90;;;;;;5071622;28;20082;-75
2022/06/10 00:45:50;;;;;;;0.52;0.52;;;12.00;99.90;;;;;;5071341;28;20147;-74
2022/06/10 00:48:39;;;;;;;1.55;0.65;;;12.00;99.90;;;;;;5071408;28;20547;-74
2022/06/10 00:51:18;;;;;;;2.05;0.80;;;12.00;99.90;;;;;;5016890;28;20053;-74
2022/06/10 00:53:44;;;;;;;3.08;1.00;;;12.00;99.90;;;;;;5071786;28;20051;-74
2022/06/10 00:56:19;;;;;;;8.80;1.08;;;12.30;99.90;;;;;;5071169;28;20123;-74
2022/06/10 00:59:07;;;;;;;1.70;1.00;;;12.60;99.90;;;;;;5071280;28;20119;-74
2022/06/10 01:01:34;;;;;;;4.63;1.20;;;12.00;99.90;;;;;;5071529;28;20047;-74
2022/06/10 01:04:02;;;;;;;1.52;0.90;;;12.00;99.90;;;;;;5071326;28;20186;-75
2022/06/10 01:06:28;;;;;;;2.25;0.98;;;11.70;99.90;;;;;;5071155;28;20126;-74
2022/06/10 01:08:55;;;;;;;1.02;0.93;;;12.30;99.90;;;;;;5038008;28;20123;-74
2022/06/10 01:12:01;;;;;;;3.47;1.27;;;12.00;99.90;;;;;;5071489;28;20127;-75
2022/06/10 01:14:43;;;;;;;2.20;1.00;;;12.00;99.90;;;;;;5071159;28;20044;-74
2022/06/10 01:17:28;;;;;;;6.35;1.20;;;12.00;99.90;;;;;;5071075;28;20052;-73
2022/06/10 01:20:12;;;;;;;2.13;1.20;;;12.00;99.90;;;;;;5072369;28;20088;-74
2022/06/10 01:23:22;;;;;;;1.50;1.05;;;11.90;99.90;;;;;;5070993;28;20041;-74
2022/06/10 01:25:59;;;;;;;2.38;1.02;;;12.00;99.90;;;;;;4955319;28;20039;-74
2022/06/10 01:28:54;;;;;;;3.45;1.35;;;12.20;99.90;;;;;;5039182;28;20052;-74
2022/06/10 01:31:31;;;;;;;1.08;0.68;;;12.00;99.90;;;;;;5021113;28;20044;-74
2022/06/10 01:34:34;;;;;;;1.40;1.00;;;12.00;99.90;;;;;;5072083;28;20385;-73
2022/06/10 01:37:10;;;;;;;3.35;1.30;;;12.00;99.90;;;;;;5054250;28;20155;-74
2022/06/10 01:39:36;;;;;;;1.45;1.17;;;12.00;99.90;;;;;;5075392;28;20552;-74
2022/06/10 01:42:29;;;;;;;1.73;1.10;;;12.00;99.90;;;;;;5076493;28;20123;-73
2022/06/10 01:45:19;;;;;;;2.25;1.23;;;12.10;99.90;;;;;;5072878;28;20055;-74
2022/06/10 01:47:59;;;;;;;1.05;0.80;;;12.00;99.90;;;;;;5018629;28;20048;-74
2022/06/10 01:50:47;;;;;;;2.13;1.30;;;12.00;99.90;;;;;;5076137;28;20048;-74
2022/06/10 01:53:34;;;;;;;2.70;1.30;;;12.00;99.90;;;;;;5075607;28;20177;-73
2022/06/10 01:56:22;;;;;;;5.30;1.17;;;12.00;99.90;;;;;;5075037;28;20040;-74
2022/06/10 01:58:55;;;;;;;1.85;1.10;;;12.00;99.90;;;;;;5075085;28;20510;-74
2022/06/10 02:01:27;;;;;;;2.22;1.20;;;11.90;99.90;;;;;;5074920;28;20040;-74
2022/06/10 02:04:15;;;;;;;1.42;1.00;;;12.10;99.90;;;;;;5075031;28;20044;-73
2022/06/10 02:06:57;;;;;;;1.27;1.15;;;12.00;99.90;;;;;;5074006;28;20044;-74
2022/06/10 02:09:27;;;;;;;3.08;1.52;;;11.90;99.90;;;;;;5074767;28;20383;-74
2022/06/10 02:12:02;;;;;;;1.80;1.33;;;11.90;99.90;;;;;;5074574;28;20036;-74
2022/06/10 02:14:37;;;;;;;1.27;0.82;;;11.70;99.90;;;;;;5075898;28;20037;-74
2022/06/10 02:17:06;;;;;;;1.90;1.27;;;11.80;99.90;;;;;;5074867;28;20377;-74
2022/06/10 02:19:37;;;;;;;3.63;1.30;;;12.20;99.90;;;;;;5074657;28;20115;-74
2022/06/10 02:22:18;;;;;;;1.33;1.00;;;11.80;99.90;;;;;;5074449;28;20086;-74
2022/06/10 02:24:51;;;;;;;4.93;1.30;;;11.80;99.90;;;;;;5058255;28;20411;-73
2022/06/10 02:27:22;;;;;;;7.05;1.38;;;11.80;99.90;;;;;;5074425;28;20047;-74
2022/06/10 02:30:05;;;;;;;2.20;1.20;;;11.80;99.90;;;;;;5075860;28;20504;-74
2022/06/10 02:32:32;;;;;;;4.25;1.23;;;11.80;99.90;;;;;;5074533;28;20044;-74
2022/06/10 02:34:59;;;;;;;1.75;1.10;;;11.80;99.90;;;;;;5074456;28;20062;-74
2022/06/10 02:37:50;;;;;;;2.28;1.30;;;11.80;99.90;;;;;;5074162;28;20040;-74
2022/06/10 02:40:34;;;;;;;1.45;1.08;;;11.70;99.90;;;;;;5074442;28;20475;-74
2022/06/10 02:43:31;;;;;;;1.25;1.00;;;11.90;99.90;;;;;;5075432;28;20041;-74
2022/06/10 02:46:20;;;;;;;3.05;1.40;;;11.70;99.90;;;;;;5070926;28;20053;-74
2022/06/10 02:49:07;;;;;;;3.08;1.35;;;11.60;99.90;;;;;;5014093;28;20052;-74
2022/06/10 02:51:34;;;;;;;2.97;1.27;;;11.70;99.90;;;;;;5074190;28;20377;-74
2022/06/10 02:54:03;;;;;;;4.32;1.35;;;11.60;99.90;;;;;;5073815;28;20040;-74
2022/06/10 02:56:29;;;;;;;1.30;1.00;;;11.70;99.90;;;;;;5073670;28;20107;-74
2022/06/10 03:02:08;;;;;;;1.58;0.70;;;11.70;99.90;;;;;;5073482;28;20098;-74
2022/06/10 03:04:48;;;;;;;2.05;1.10;;;11.60;99.90;;;;;;5073827;28;20101;-74
2022/06/10 03:07:19;;;;;;;3.10;0.75;;;11.60;99.90;;;;;;5073514;28;20124;-74
2022/06/10 03:10:10;;;;;;;5.05;1.38;;;11.60;99.90;;;;;;5073596;28;20457;-74
2022/06/10 03:12:46;;;;;;;2.20;1.20;;;11.60;99.90;;;;;;5073312;28;20040;-74
2022/06/10 03:15:50;;;;;;;5.85;1.40;;;11.50;99.90;;;;;;5073419;28;20381;-73
2022/06/10 03:18:40;;;;;;;2.85;1.00;;;11.50;99.90;;;;;;5073405;28;20063;-73
2022/06/10 03:21:27;;;;;;;3.15;1.15;;;11.50;99.90;;;;;;5073272;28;20083;-74
2022/06/10 03:24:24;;;;;;;3.80;1.10;;;11.40;99.90;;;;;;5073203;28;20205;-74
2022/06/10 03:27:10;;;;;;;1.42;0.93;;;11.40;99.90;;;;;;5073210;28;20098;-74
2022/06/10 03:30:09;;;;;;;2.83;1.42;;;11.40;99.90;;;;;;5073078;28;20052;-74
2022/06/10 03:32:42;;;;;;;1.98;1.35;;;11.40;99.90;;;;;;5073422;28;20041;-74
2022/06/10 03:35:29;;;;;;;2.95;1.55;;;11.40;99.90;;;;;;5073230;28;20550;-74
2022/06/10 03:37:55;;;;;;;2.85;1.60;;;11.40;99.90;;;;;;5072900;28;20119;-74
2022/06/10 03:40:25;;;;;;;11.15;1.77;;;11.30;99.90;;;;;;5072791;28;20032;-74
2022/06/10 03:42:53;;;;;;;3.67;1.42;;;11.10;99.90;;;;;;5072719;28;20048;-74
2022/06/10 03:45:23;;;;;;;2.35;1.58;;;11.30;99.90;;;;;;5072621;28;20059;-74
2022/06/10 03:47:50;;;;;;;1.60;1.30;;;11.20;99.90;;;;;;5072240;28;20060;-74
2022/06/10 03:50:23;;;;;;;1.50;1.17;;;11.30;99.90;;;;;;5056026;28;20053;-74
2022/06/10 03:52:49;;;;;;;2.28;1.30;;;11.30;99.90;;;;;;5072428;28;20115;-74
2022/06/10 03:55:17;;;;;;;7.43;1.50;;;11.50;99.90;;;;;;5072476;28;20150;-73
2022/06/10 03:57:44;;;;;;;3.10;1.02;;;11.30;99.90;;;;;;5072505;28;20430;-74
2022/06/10 04:00:21;;;;;;;7.38;1.92;;;11.40;99.90;;;;;;5072850;28;20391;-74
2022/06/10 04:02:47;;;;;;;1.85;1.30;;;11.30;99.90;;;;;;5072311;28;20048;-74
2022/06/10 04:05:13;;;;;;;3.30;1.30;;;11.40;99.90;;;;;;5055775;28;20048;-74
2022/06/10 04:07:40;;;;;;;2.20;1.20;;;11.40;99.90;;;;;;5072080;28;20060;-74
2022/06/10 04:10:09;;;;;;;4.03;1.40;;;11.60;99.90;;;;;;5072108;28;20037;-74
2022/06/10 04:12:36;;;;;;;1.98;1.10;;;11.60;99.90;;;;;;5072536;28;20093;-74
2022/06/10 04:15:02;;;;;;;3.50;1.20;;;11.60;99.90;;;;;;5072387;28;20531;-74
2022/06/10 04:17:28;;;;;;;3.53;1.42;;;11.70;99.90;;;;;;5072404;28;20042;-74
2022/06/10 04:19:53;;;;;;;7.18;1.60;;;11.80;99.90;;;;;;5072086;28;20139;-73
2022/06/10 04:22:19;;;;;;;3.67;1.92;;;12.20;99.90;;;;;;5072030;28;20458;-73
2022/06/10 04:24:45;;;;;;;2.38;1.70;;;11.80;99.90;;;;;;5055371;28;20055;-74
2022/06/10 04:27:10;;;;;;;5.97;1.15;;;11.90;99.90;;;;;;5055338;28;20036;-74
2022/06/10 04:29:36;;;;;;;5.03;1.27;;;12.00;99.90;;;;;;5072180;28;20037;-74
2022/06/10 04:32:02;;;;;;;2.08;1.05;;;12.10;99.90;;;;;;5073222;28;20111;-74
2022/06/10 04:34:27;;;;;;;4.28;1.35;;;12.10;99.90;;;;;;5071625;28;20032;-74
2022/06/10 04:36:53;;;;;;;1.38;0.90;;;12.40;99.90;;;;;;5071708;28;20036;-74
2022/06/10 04:39:19;;;;;;;5.75;1.63;;;12.20;99.90;;;;;;5071901;28;20459;-74
2022/06/10 04:41:45;;;;;;;4.03;1.70;;;12.30;99.90;;;;;;5072012;28;20055;-74
2022/06/10 04:44:10;;;;;;;1.67;1.30;;;12.40;99.90;;;;;;5072046;28;20045;-76
2022/06/10 04:46:40;;;;;;;3.88;1.45;;;12.40;99.90;;;;;;5071219;28;20048;-74
2022/06/10 04:49:06;;;;;;;4.85;1.88;;;12.40;99.90;;;;;;5071422;28;20127;-74
2022/06/10 04:51:33;;;;;;;2.08;1.33;;;12.50;99.90;;;;;;5071643;28;20047;-74
2022/06/10 04:53:59;;;;;;;1.75;1.13;;;12.60;99.90;;;;;;5071626;28;20082;-74
2022/06/10 04:56:25;;;;;;;3.55;1.50;;;12.70;99.90;;;;;;5071672;28;20040;-74
2022/06/10 04:58:51;;;;;;;4.25;1.42;;;12.80;99.90;;;;;;5072769;28;20036;-74
2022/06/10 05:01:17;;;;;;;4.38;1.05;;;12.90;99.90;;;;;;5071489;28;20480;-74
2022/06/10 05:03:42;;;;;;;2.90;1.25;;;13.00;99.90;;;;;;5071389;28;20495;-74
2022/06/10 05:06:09;;;;;;;2.92;1.27;;;13.10;99.90;;;;;;5054882;28;20040;-74
2022/06/10 05:08:35;;;;;;;6.80;1.60;;;13.20;99.90;;;;;;5054706;28;20032;-74
2022/06/10 05:11:00;;;;;;;1.85;1.13;;;13.30;99.90;;;;;;5054425;28;20033;-74
2022/06/10 05:13:26;;;;;;;2.88;1.30;;;13.40;99.90;;;;;;5071482;28;20484;-74
2022/06/10 05:15:52;;;;;;;3.22;1.45;;;13.50;99.90;;;;;;5055111;28;20464;-75
2022/06/10 05:18:20;;;;;;;3.30;1.67;;;13.70;99.90;;;;;;5054767;28;20084;-74
2022/06/10 05:20:46;;;;;;;2.40;1.20;;;13.70;99.90;;;;;;5072549;28;20103;-75
2022/06/10 05:23:14;;;;;;;5.60;1.80;;;13.90;99.90;;;;;;5071662;28;20135;-75
2022/06/10 05:25:40;;;;;;;5.28;1.95;;;14.00;99.90;;;;;;5071178;28;20083;-74
2022/06/10 05:28:07;;;;;;;2.85;1.20;;;14.00;99.90;;;;;;5070855;28;20048;-75
2022/06/10 05:30:34;;;;;;;2.13;1.27;;;14.10;99.90;;;;;;5071326;28;20040;-76
2022/06/10 05:33:01;;;;;;;4.50;1.52;;;14.20;99.90;;;;;;5070991;28;20059;-75
2022/06/10 05:35:28;;;;;;;4.57;1.75;;;14.30;99.90;;;;;;5070833;28;20078;-75
2022/06/10 05:37:54;;;;;;;2.42;1.52;;;14.40;99.90;;;;;;5071244;28;20041;-75
2022/06/10 05:40:22;;;;;;;4.13;1.63;;;14.50;99.90;;;;;;5071041;28;20408;-74
2022/06/10 05:42:48;;;;;;;2.88;1.77;;;14.60;99.90;;;;;;5071296;28;20062;-75
2022/06/10 05:45:17;;;;;;;3.80;1.52;;;14.70;99.90;;;;;;5079630;28;20500;-73
2022/06/10 05:47:44;;;;;;;4.38;1.42;;;14.80;99.90;;;;;;5074594;28;20060;-75
2022/06/10 05:50:36;;;;;;;6.40;1.92;;;15.00;99.90;;;;;;5059324;28;20153;-75
2022/06/10 05:53:04;;;;;;;2.08;1.20;;;15.10;99.90;;;;;;5074696;28;20036;-75
2022/06/10 05:55:31;;;;;;;3.30;1.40;;;15.20;99.90;;;;;;5075421;28;20047;-75
2022/06/10 05:57:57;;;;;;;4.65;1.83;;;;;;;;;;5076179;28;20102;-75
2022/06/10 06:00:26;;;;;;;2.15;1.38;;;15.30;99.90;;;;;;5074584;28;20042;-75
2022/06/10 06:02:52;;;;;;;6.13;1.52;;;15.40;99.90;;;;;;5092952;28;20530;-74
2022/06/10 06:05:20;;;;;;;3.15;1.73;;;15.40;99.90;;;;;;5076218;28;20044;-75
2022/06/10 06:07:47;;;;;;;2.13;1.05;;;15.40;99.90;;;;;;5074315;28;20124;-75
2022/06/10 06:10:16;;;;;;;4.18;1.55;;;15.40;99.90;;;;;;5076637;28;20048;-75
2022/06/10 06:12:42;;;;;;;5.80;1.50;;;15.40;99.90;;;;;;5075878;28;20096;-76
2022/06/10 06:15:09;;;;;;;1.38;1.02;;;15.40;99.90;;;;;;5075265;28;20036;-77
2022/06/10 06:17:35;;;;;;;2.35;1.50;;;15.40;99.90;;;;;;5075925;28;20440;-76
2022/06/10 06:20:02;;;;;;;2.83;1.52;;;15.30;99.90;;;;;;5074512;28;20421;-75
2022/06/10 06:22:27;;;;;;;4.53;1.35;;;15.20;99.90;;;;;;5077300;28;20043;-76
2022/06/10 06:24:53;;;;;;;3.10;1.40;;;15.20;99.90;;;;;;5077498;28;20048;-74
2022/06/10 06:27:19;;;;;;;2.78;1.60;;;15.30;99.90;;;;;;5077731;28;20522;-76
2022/06/10 06:29:45;;;;;;;2.47;1.23;;;15.30;99.90;;;;;;5077463;28;20035;-75
2022/06/10 06:32:11;;;;;;;3.58;1.38;;;15.30;99.90;;;;;;5077314;28;20433;-74
2022/06/10 06:34:38;;;;;;;4.25;1.40;;;15.50;99.90;;;;;;5077204;28;20050;-75
2022/06/10 06:37:04;;;;;;;4.07;1.58;;;15.30;99.90;;;;;;5077468;28;20415;-75
2022/06/10 06:39:30;;;;;;;2.70;1.42;;;15.50;99.90;;;;;;5077095;28;20398;-78
2022/06/10 06:41:56;;;;;;;6.50;1.73;;;15.40;99.90;;;;;;5076963;28;20040;-75
2022/06/10 06:44:22;;;;;;;4.85;1.70;;;15.40;99.90;;;;;;5043664;28;20125;-75
2022/06/10 06:46:48;;;;;;;5.57;1.70;;;15.50;99.90;;;;;;5076876;28;20468;-75
2022/06/10 06:49:18;;;;;;;6.65;2.10;;;15.50;99.90;;;;;;5077278;28;20032;-74
2022/06/10 06:51:43;;;;;;;3.35;1.20;;;15.60;99.90;;;;;;5077063;28;20074;-75
2022/06/10 06:54:09;;;;;;;3.03;1.27;;;15.70;99.90;;;;;;5077476;28;20071;-75
2022/06/10 06:56:36;;;;;;;1.67;1.17;;;15.70;99.90;;;;;;5077232;28;20134;-74
2022/06/10 06:59:03;;;;;;;2.10;1.25;;;15.70;99.90;;;;;;5076792;28;20399;-76
2022/06/10 07:01:29;;;;;;;2.05;1.30;;;15.90;99.90;;;;;;5077046;28;20044;-76
2022/06/10 07:03:54;;;;;;;4.45;1.63;;;16.00;99.90;;;;;;5077799;28;20395;-76
2022/06/10 07:06:20;;;;;;;2.63;1.90;;;16.00;99.90;;;;;;5077377;28;20040;-76
2022/06/10 07:08:46;;;;;;;4.60;1.50;;;16.00;99.90;;;;;;5077166;28;20076;-76
2022/06/10 07:11:12;;;;;;;1.77;1.30;;;16.00;99.90;;;;;;5077159;28;20075;-76
2022/06/10 07:13:38;;;;;;;4.07;1.63;;;16.60;99.90;;;;;;5077164;28;20398;-77
2022/06/10 07:16:05;;;;;;;1.90;1.20;;;16.30;99.90;;;;;;5076987;28;20156;-76
2022/06/10 07:18:31;;;;;;;2.70;1.40;;;16.00;99.90;;;;;;5060400;28;20407;-77
2022/06/10 07:20:58;;;;;;;3.70;1.95;;;16.10;99.90;;;;;;5059699;28;20044;-76
2022/06/10 07:23:24;;;;;;;2.13;1.50;;;16.20;99.90;;;;;;5076652;28;20064;-76
2022/06/10 07:25:50;;;;;;;4.55;2.00;;;16.10;99.90;;;;;;5059555;28;20101;-77
2022/06/10 07:28:16;;;;;;;4.65;1.85;;;16.40;99.90;;;;;;5059950;28;20442;-76
2022/06/10 07:30:43;;;;;;;3.67;2.05;;;16.00;99.90;;;;;;5043324;28;20043;-77
2022/06/10 07:33:09;;;;;;;3.08;1.50;;;16.30;99.90;;;;;;5075865;28;20048;-77
2022/06/10 07:35:35;;;;;;;4.35;1.98;;;16.40;99.90;;;;;;5076441;28;20036;-77
2022/06/10 07:38:02;;;;;;;6.20;2.20;;;16.10;99.90;;;;;;5042836;28;20086;-76
2022/06/10 07:43:20;;;;;;;5.43;2.15;;;16.20;99.90;;;;;;5075690;28;20051;-77
2022/06/10 07:45:46;;;;;;;2.90;2.20;;;16.30;99.90;;;;;;5076144;28;20051;-76
2022/06/10 07:48:12;;;;;;;3.55;2.10;;;16.10;99.90;;;;;;5076503;28;20096;-76
2022/06/10 07:50:39;;;;;;;3.20;1.95;;;16.20;99.90;;;;;;5076014;28;20044;-77
2022/06/10 07:53:05;;;;;;;5.18;1.52;;;16.20;99.90;;;;;;5076191;28;20153;-76
2022/06/10 07:55:30;;;;;;;3.08;2.25;;;16.30;99.90;;;;;;5042937;28;20067;-76
2022/06/10 07:57:56;;;;;;;4.65;1.85;;;16.40;99.90;;;;;;5059641;28;20043;-76
2022/06/10 08:00:22;;;;;;;5.95;2.50;;;16.40;99.90;;;;;;5059888;28;20048;-76
2022/06/10 08:02:48;;;;;;;4.18;1.70;;;16.50;99.90;;;;;;5076282;28;20118;-76
2022/06/10 08:05:16;;;;;;;3.58;2.20;;;;;;;;;;5076584;28;20124;-77
2022/06/10 08:07:42;;;;;;;3.00;2.00;;;16.80;99.90;;;;;;5076427;28;20028;-77
2022/06/10 08:10:17;;;;;;;2.05;1.75;;;16.80;99.90;;;;;;5076247;28;20044;-76
2022/06/10 08:12:43;;;;;;;5.28;2.10;;;17.00;99.90;;;;;;5075948;28;20043;-77
2022/06/10 08:15:09;;;;;;;2.95;1.75;;;17.20;99.90;;;;;;5076165;28;20040;-78
2022/06/10 08:17:35;;;;;;;3.40;2.17;;;;;;;;;;5059187;28;20123;-77
2022/06/10 08:20:01;;;;;;;5.65;2.00;;;;;;;;;;5076414;28;20048;-77
2022/06/10 08:22:35;;;;;;;6.07;2.15;;;;;;;;;;5076401;28;20051;-77
2022/06/10 08:25:02;;;;;;;3.95;2.00;;;;;;;;;;5059645;28;20063;-77
2022/06/10 08:27:29;;;;;;;3.33;1.80;;;;;;;;;;5058526;28;20042;-76
2022/06/10 08:29:55;;;;;;;3.08;1.70;;;;;;;;;;5075340;28;20039;-76
2022/06/10 08:32:21;;;;;;;3.78;1.90;;;;;;;;;;5075803;28;20046;-76
2022/06/10 08:34:48;;;;;;;3.60;2.08;;;;;;;;;;5076151;28;20409;-76
2022/06/10 08:37:14;;;;;;;3.25;2.50;;;;;;;;;;5075337;28;20039;-76
2022/06/10 08:39:40;;;;;;;3.20;1.52;;;;;;;;;;5075890;28;20055;-76
2022/06/10 08:42:25;;;;;;;10.57;2.20;;;;;;;;;;5075308;28;20051;-76
2022/06/10 08:44:52;;;;;;;2.13;1.50;;;;;;;;;;5074648;28;20071;-76
2022/06/10 08:47:27;;;;;;;4.47;2.20;;;;;;;;;;5075663;28;20045;-77
2022/06/10 08:50:06;;;;;;;2.75;1.60;;;;;;;;;;5075675;28;20044;-76
2022/06/10 08:52:52;;;;;;;3.42;1.70;;;;;;;;;;5075882;28;20050;-76
2022/06/10 08:55:33;;;;;;;7.45;2.03;;;;;;;;;;5075157;28;20044;-77
2022/06/10 08:58:02;;;;;;;5.25;1.98;;;;;;;;;;5074796;28;20040;-76
2022/06/10 09:00:34;;;;;;;5.00;2.53;;;;;;;;;;5059019;28;20052;-76
2022/06/10 09:03:12;;;;;;;3.97;2.08;;;;;;;;;;5075569;28;20126;-76
2022/06/10 09:05:46;;;;;;;3.45;1.77;;;;;;;;;;5058693;28;20392;-76
2022/06/10 09:08:37;;;;;;;3.63;2.00;;;17.80;99.90;;;;;;5075297;28;20048;-76
2022/06/10 09:11:32;;;;;;;9.57;2.28;;;18.00;99.90;;;;;;5074961;28;20040;-76
2022/06/10 09:14:04;;;;;;;3.00;1.90;;;18.10;99.90;;;;;;5036956;28;20048;-75
2022/06/10 09:16:38;;;;;;;3.55;1.70;;;18.10;99.90;;;;;;5075156;28;20633;-76
2022/06/10 09:19:12;;;;;;;3.45;1.67;;;18.20;99.90;;;;;;5058728;28;20543;-77
2022/06/10 09:21:41;;;;;;;4.28;1.50;;;18.30;99.90;;;;;;5075241;28;20043;-76
2022/06/10 09:24:39;;;;;;;3.38;1.60;;;18.50;99.90;;;;;;5074995;28;20044;-76
2022/06/10 09:27:23;;;;;;;2.67;1.50;;;18.50;99.90;;;;;;5074665;28;20048;-77
2022/06/10 09:29:49;;;;;;;3.60;1.63;;;18.40;99.90;;;;;;5074731;28;20032;-76
2022/06/10 09:33:04;;;;;;;2.50;1.42;;;18.40;99.90;;;;;;5075157;28;20048;-76
2022/06/10 09:36:01;;;;;;;4.43;1.70;;;18.40;99.90;;;;;;5074542;28;20042;-76
2022/06/10 09:38:45;;;;;;;2.97;2.10;;;18.30;99.90;;;;;;5074580;28;20043;-76
2022/06/10 09:41:31;;;;;;;4.20;2.00;;;18.20;99.90;;;;;;5074825;28;20117;-77
2022/06/10 09:44:08;;;;;;;2.75;1.70;;;18.20;99.90;;;;;;5074885;28;20458;-76
2022/06/10 09:46:58;;;;;;;4.00;1.60;;;18.20;99.90;;;;;;5057627;28;20101;-75
2022/06/10 09:49:55;;;;;;;7.55;1.88;;;18.20;99.90;;;;;;5075064;28;20107;-76
2022/06/10 09:53:02;;;;;;;4.60;1.75;;;18.20;99.90;;;;;;5040840;28;20453;-76
2022/06/10 09:55:49;;;;;;;5.57;2.05;;;18.10;99.90;;;;;;5058604;28;20032;-76
2022/06/10 09:58:40;;;;;;;3.47;1.67;;;18.10;99.90;;;;;;5078102;28;20066;-76
2022/06/10 10:01:25;;;;;;;;;;;17.90;99.90;;;;;;5078503;28;20046;-76
2022/06/10 10:04:08;;;;;;;4.78;1.40;;;18.00;99.90;;;;;;5078002;28;19938;-76
2022/06/10 10:06:42;;;;;;;3.55;1.52;;;18.10;99.90;;;;;;5078134;28;20040;-76
2022/06/10 10:09:25;;;;;;;3.55;1.50;;;18.10;99.90;;;;;;5077981;28;20040;-76
2022/06/10 10:12:05;;;;;;;5.13;2.10;;;18.10;99.90;;;;;;5078060;28;20097;-76
2022/06/10 10:14:54;;;;;;;3.13;1.80;;;18.20;99.90;;;;;;5077865;28;20043;-76
2022/06/10 10:18:03;;;;;;;4.25;1.40;;;18.40;99.90;;;;;;5077838;28;20537;-76
2022/06/10 10:20:52;;;;;;;4.45;1.85;;;18.60;99.90;;;;;;5060963;28;20054;-78
2022/06/10 10:23:46;;;;;;;5.10;1.48;;;18.80;99.90;;;;;;5077474;28;20043;-77
2022/06/10 10:26:27;;;;;;;4.78;1.50;;;19.00;99.90;;;;;;5060550;28;20044;-76
2022/06/10 10:29:04;;;;;;;3.72;1.70;;;19.10;99.90;;;;;;5077604;28;20376;-76
2022/06/10 10:31:38;;;;;;;3.45;1.60;;;19.10;99.90;;;;;;5077170;28;20036;-76
2022/06/10 10:34:05;;;;;;;4.30;1.90;;;19.20;99.90;;;;;;5060717;28;20040;-75
2022/06/10 10:36:45;;;;;;;2.63;1.60;;;19.40;99.90;;;;;;5077555;28;20122;-76
2022/06/10 10:39:27;;;;;;;2.35;1.58;;;19.40;99.90;;;;;;5095691;28;20503;-75
2022/06/10 10:42:16;;;;;;;2.35;1.30;;;19.40;99.90;;;;;;5060458;28;20457;-75
2022/06/10 10:44:45;;;;;;;3.08;1.40;;;19.50;99.90;;;;;;5060954;28;20084;-77
2022/06/10 10:47:10;;;;;;;2.85;1.58;;;19.60;99.90;;;;;;5077211;28;20109;-76
2022/06/10 10:49:47;;;;;;;3.13;1.15;;;19.50;99.90;;;;;;5077964;28;20453;-75
2022/06/10 10:52:29;;;;;;;2.90;1.52;;;19.50;99.90;;;;;;5077054;28;20380;-75
2022/06/10 10:55:00;;;;;;;3.72;1.20;;;19.40;99.90;;;;;;5077288;28;20279;-72
2022/06/10 10:57:33;;;;;;;3.67;1.50;;;19.50;99.90;;;;;;5077146;28;20053;-73
2022/06/10 11:00:14;;;;;;;3.30;1.75;;;19.60;99.90;;;;;;5060393;28;20044;-74
2022/06/10 11:02:53;;;;;;;2.47;1.50;;;19.70;99.90;;;;;;5076935;28;20128;-74
2022/06/10 11:05:32;;;;;;;2.83;1.52;;;19.80;99.90;;;;;;5059721;28;20122;-73
2022/06/10 11:08:19;;;;;;;1.95;1.42;;;19.90;99.90;;;;;;5075725;28;20036;-73
2022/06/10 11:11:17;;;;;;;1.67;1.33;;;20.00;99.90;;;;;;5076552;28;20183;-72
2022/06/10 11:13:46;;;;;;;3.60;1.48;;;20.10;99.90;;;;;;5076069;28;20043;-73
2022/06/10 11:16:27;;;;;;;3.30;1.40;;;20.10;99.90;;;;;;5076196;28;20116;-73
2022/06/10 11:19:02;;;;;;;2.30;1.40;;;19.90;99.90;;;;;;5076274;28;20380;-73
2022/06/10 11:21:28;;;;;;;2.28;1.27;;;19.80;99.90;;;;;;5076217;28;20046;-74
2022/06/10 11:23:58;;;;;;;2.35;1.48;;;19.70;99.90;;;;;;5076021;28;20167;-74
2022/06/10 11:26:26;;;;;;;1.83;1.35;;;19.70;99.90;;;;;;5076294;28;20036;-73
2022/06/10 11:29:01;;;;;;;1.77;1.10;;;19.70;99.90;;;;;;5076304;28;20475;-74
2022/06/10 11:31:45;;;;;;;1.33;1.02;;;19.70;99.90;;;;;;5076234;28;20036;-70
2022/06/10 11:34:22;;;;;;;2.72;1.45;;;19.40;99.90;;;;;;5059591;28;20361;-71
2022/06/10 11:36:53;;;;;;;3.10;1.20;;;19.90;99.90;;;;;;5059472;28;20046;-70
2022/06/10 11:39:23;;;;;;;1.77;1.05;;;20.10;99.90;;;;;;5075579;28;20479;-70
2022/06/10 11:42:18;;;;;;;1.83;1.33;;;20.10;99.90;;;;;;5075699;28;20089;-70
2022/06/10 11:44:58;;;;;;;2.80;1.20;;;20.20;99.90;;;;;;5075957;28;20063;-70
2022/06/10 11:47:38;;;;;;;3.40;1.40;;;20.50;99.90;;;;;;5075721;28;20075;-71
2022/06/10 11:50:19;;;;;;;2.90;1.20;;;20.60;99.90;;;;;;5075764;28;20040;-71
2022/06/10 11:53:26;;;;;;;3.03;1.13;;;20.80;99.90;;;;;;5075545;28;20075;-71
2022/06/10 11:59:42;;;;;;;1.80;1.10;;;;;;;;;;4959970;28;20065;-71
2022/06/10 12:01:29;;;;;;;1.48;0.98;;;21.70;99.90;;;;;;5075160;28;20093;-71
2022/06/10 12:04:00;;;;;;;4.05;1.10;;;21.50;99.90;;;;;;5075186;28;20051;-71
2022/06/10 12:06:36;;;;;;;4.03;1.58;;;21.30;99.90;;;;;;5075208;28;20124;-71
2022/06/10 12:09:29;;;;;;;3.13;1.20;;;21.00;99.90;;;;;;5075032;28;20040;-71
2022/06/10 12:12:04;;;;;;;1.48;1.15;;;20.70;99.90;;;;;;5075445;28;20480;-71
2022/06/10 12:14:42;;;;;;;2.17;1.25;;;20.60;99.90;;;;;;5075350;28;20047;-71
2022/06/10 12:17:16;;;;;;;1.15;0.90;;;20.50;99.90;;;;;;5075284;28;20048;-71
2022/06/10 12:20:04;;;;;;;2.40;1.00;;;20.70;99.90;;;;;;5058207;28;20115;-70
2022/06/10 12:22:32;;;;;;;2.10;1.23;;;20.80;99.90;;;;;;5074979;28;20040;-70
2022/06/10 12:24:58;;;;;;;1.73;1.10;;;21.00;99.90;;;;;;5075097;28;20094;-70
2022/06/10 12:27:38;;;;;;;2.17;1.00;;;21.10;99.90;;;;;;5092900;28;20143;-71
2022/06/10 12:30:23;;;;;;;1.73;1.10;;;21.10;99.90;;;;;;5074577;28;20584;-71
2022/06/10 12:33:13;;;;;;;5.13;1.10;;;21.30;99.90;;;;;;5057929;28;20036;-71
2022/06/10 12:35:41;;;;;;;;;;;21.40;99.90;;;;;;5074815;28;20048;-71
2022/06/10 12:38:09;;;;;;;2.08;1.27;;;21.40;99.90;;;;;;5074346;28;19920;-71
2022/06/10 12:40:45;;;;;;;6.22;1.38;;;21.60;99.90;;;;;;5074137;28;20616;-71
2022/06/10 12:43:14;;;;;;;1.30;1.00;;;21.40;99.90;;;;;;5074378;28;20087;-71
2022/06/10 12:45:45;;;;;;;1.15;0.90;;;21.60;99.90;;;;;;5074363;28;20469;-72
2022/06/10 12:48:25;;;;;;;2.88;1.10;;;21.90;99.90;;;;;;5074174;28;20048;-71
2022/06/10 12:51:03;;;;;;;3.00;1.35;;;21.80;99.90;;;;;;5092580;28;20044;-70
2022/06/10 12:53:46;;;;;;;1.80;1.13;;;21.90;99.90;;;;;;5092652;28;20097;-70
2022/06/10 12:56:37;;;;;;;5.82;1.30;;;21.90;99.90;;;;;;5074028;28;20129;-70
2022/06/10 12:59:09;;;;;;;1.42;1.00;;;22.00;99.90;;;;;;5061847;28;20079;-71
2022/06/10 13:01:35;;;;;;;1.65;0.90;;;22.00;99.90;;;;;;5092217;28;20059;-73
2022/06/10 13:04:05;;;;;;;2.55;1.23;;;22.00;99.90;;;;;;5057521;28;20415;-72
2022/06/10 13:06:42;;;;;;;1.60;1.10;;;21.70;99.90;;;;;;5057552;28;20051;-72
2022/06/10 13:09:11;;;;;;;1.70;1.00;;;21.70;99.90;;;;;;5074226;28;20044;-72
2022/06/10 13:11:56;;;;;;;2.05;0.93;;;21.60;99.90;;;;;;5057198;28;20414;-71
2022/06/10 13:14:33;;;;;;;2.95;1.13;;;21.50;99.90;;;;;;5073879;28;20032;-71
2022/06/10 13:16:59;;;;;;;2.97;0.98;;;21.50;99.90;;;;;;5074152;28;20455;-72
2022/06/10 13:19:49;;;;;;;4.47;1.38;;;21.70;99.90;;;;;;5057267;28;20112;-71
2022/06/10 13:22:20;;;;;;;2.45;1.02;;;21.70;99.90;;;;;;5073530;28;20464;-73
2022/06/10 13:24:52;;;;;;;3.38;1.02;;;21.60;99.90;;;;;;5073878;28;20104;-71
2022/06/10 13:27:39;;;;;;;5.13;1.20;;;21.30;99.90;;;;;;5073969;28;20044;-73
2022/06/10 13:30:22;;;;;;;2.45;1.13;;;21.60;99.90;;;;;;5073833;28;20044;-71
2022/06/10 13:33:00;;;;;;;1.10;0.77;;;21.40;99.90;;;;;;5060786;28;20415;-72
2022/06/10 13:35:46;;;;;;;1.52;0.95;;;21.10;99.90;;;;;;5077898;28;20085;-73
2022/06/10 13:38:19;;;;;;;1.55;1.10;;;21.10;99.90;;;;;;5077278;28;20048;-71
2022/06/10 13:41:48;;;;;;;1.35;1.00;;;21.10;99.90;;;;;;5077656;28;20464;-71